sensor_id;sensor_type;location;lat;lon;timestamp;P1;durP1;ratioP1;P2;durP2;ratioP2
76699;SDS011;70081;44.524;0.194;2023-05-23T00:03:12;7.17;;;5.47;;
76699;SDS011;70081;44.524;0.194;2023-05-23T00:08:33;7.83;;;4.63;;
76699;SDS011;70081;44.524;0.194;2023-05-23T00:14:07;9.03;;;5.20;;
76699;SDS011;70081;44.524;0.194;2023-05-23T00:19:38;6.67;;;5.00;;
76699;SDS011;70081;44.524;0.194;2023-05-23T00:25:12;6.50;;;5.17;;
76699;SDS011;70081;44.524;0.194;2023-05-23T00:30:44;6.77;;;5.43;;
76699;SDS011;70081;44.524;0.194;2023-05-23T00:36:16;6.23;;;5.43;;
76699;SDS011;70081;44.524;0.194;2023-05-23T00:41:48;8.13;;;5.50;;
76699;SDS011;70081;44.524;0.194;2023-05-23T00:47:21;6.27;;;4.90;;
76699;SDS011;70081;44.524;0.194;2023-05-23T00:52:55;6.50;;;4.67;;
76699;SDS011;70081;44.524;0.194;2023-05-23T00:58:27;4.63;;;4.10;;
76699;SDS011;70081;44.524;0.194;2023-05-23T01:03:59;5.50;;;4.10;;
76699;SDS011;70081;44.524;0.194;2023-05-23T01:09:33;5.27;;;4.37;;
76699;SDS011;70081;44.524;0.194;2023-05-23T01:15:07;8.23;;;5.00;;
76699;SDS011;70081;44.524;0.194;2023-05-23T01:20:38;6.47;;;4.70;;
76699;SDS011;70081;44.524;0.194;2023-05-23T01:26:21;6.20;;;5.60;;
76699;SDS011;70081;44.524;0.194;2023-05-23T01:31:45;5.77;;;4.87;;
76699;SDS011;70081;44.524;0.194;2023-05-23T01:37:19;6.77;;;5.30;;
76699;SDS011;70081;44.524;0.194;2023-05-23T01:42:50;6.47;;;4.23;;
76699;SDS011;70081;44.524;0.194;2023-05-23T01:48:22;7.70;;;5.17;;
76699;SDS011;70081;44.524;0.194;2023-05-23T01:53:53;5.37;;;4.70;;
76699;SDS011;70081;44.524;0.194;2023-05-23T01:59:37;5.40;;;4.40;;
76699;SDS011;70081;44.524;0.194;2023-05-23T02:04:59;6.67;;;4.40;;
76699;SDS011;70081;44.524;0.194;2023-05-23T02:10:32;6.70;;;4.90;;
76699;SDS011;70081;44.524;0.194;2023-05-23T02:16:04;6.17;;;4.30;;
76699;SDS011;70081;44.524;0.194;2023-05-23T02:21:37;5.57;;;4.13;;
76699;SDS011;70081;44.524;0.194;2023-05-23T02:27:11;5.57;;;4.70;;
76699;SDS011;70081;44.524;0.194;2023-05-23T02:32:44;8.93;;;5.20;;
76699;SDS011;70081;44.524;0.194;2023-05-23T02:38:16;11.40;;;5.87;;
76699;SDS011;70081;44.524;0.194;2023-05-23T02:43:49;8.67;;;6.10;;
76699;SDS011;70081;44.524;0.194;2023-05-23T02:49:22;6.10;;;5.03;;
76699;SDS011;70081;44.524;0.194;2023-05-23T02:54:53;8.77;;;5.07;;
76699;SDS011;70081;44.524;0.194;2023-05-23T03:00:26;6.60;;;5.33;;
76699;SDS011;70081;44.524;0.194;2023-05-23T03:05:58;5.83;;;4.97;;
76699;SDS011;70081;44.524;0.194;2023-05-23T03:11:34;6.90;;;5.60;;
76699;SDS011;70081;44.524;0.194;2023-05-23T03:17:03;7.97;;;6.63;;
76699;SDS011;70081;44.524;0.194;2023-05-23T03:22:38;7.30;;;6.23;;
76699;SDS011;70081;44.524;0.194;2023-05-23T03:28:11;9.07;;;6.63;;
76699;SDS011;70081;44.524;0.194;2023-05-23T03:33:42;8.37;;;6.33;;
76699;SDS011;70081;44.524;0.194;2023-05-23T03:39:14;6.63;;;5.67;;
76699;SDS011;70081;44.524;0.194;2023-05-23T03:44:48;6.97;;;5.77;;
76699;SDS011;70081;44.524;0.194;2023-05-23T03:50:19;7.17;;;5.07;;
76699;SDS011;70081;44.524;0.194;2023-05-23T03:55:53;5.37;;;4.10;;
76699;SDS011;70081;44.524;0.194;2023-05-23T04:01:27;6.60;;;4.30;;
76699;SDS011;70081;44.524;0.194;2023-05-23T04:06:58;5.37;;;4.43;;
76699;SDS011;70081;44.524;0.194;2023-05-23T04:12:34;7.40;;;4.57;;
76699;SDS011;70081;44.524;0.194;2023-05-23T04:18:06;7.40;;;4.87;;
76699;SDS011;70081;44.524;0.194;2023-05-23T04:23:37;7.90;;;5.70;;
76699;SDS011;70081;44.524;0.194;2023-05-23T04:29:11;7.30;;;5.70;;
76699;SDS011;70081;44.524;0.194;2023-05-23T04:34:43;6.47;;;5.30;;
76699;SDS011;70081;44.524;0.194;2023-05-23T04:40:16;6.10;;;5.30;;
76699;SDS011;70081;44.524;0.194;2023-05-23T04:45:51;7.67;;;5.47;;
76699;SDS011;70081;44.524;0.194;2023-05-23T04:51:22;8.33;;;6.20;;
76699;SDS011;70081;44.524;0.194;2023-05-23T04:56:54;9.77;;;8.10;;
76699;SDS011;70081;44.524;0.194;2023-05-23T05:08:01;11.10;;;8.73;;
76699;SDS011;70081;44.524;0.194;2023-05-23T05:13:31;11.63;;;7.83;;
76699;SDS011;70081;44.524;0.194;2023-05-23T05:19:04;9.20;;;7.73;;
76699;SDS011;70081;44.524;0.194;2023-05-23T05:24:36;10.33;;;7.33;;
76699;SDS011;70081;44.524;0.194;2023-05-23T05:30:10;7.37;;;6.00;;
76699;SDS011;70081;44.524;0.194;2023-05-23T05:35:41;10.70;;;6.30;;
76699;SDS011;70081;44.524;0.194;2023-05-23T05:41:15;8.00;;;6.20;;
76699;SDS011;70081;44.524;0.194;2023-05-23T05:46:48;9.07;;;6.77;;
76699;SDS011;70081;44.524;0.194;2023-05-23T05:52:20;7.30;;;6.00;;
76699;SDS011;70081;44.524;0.194;2023-05-23T05:57:54;9.13;;;6.83;;
76699;SDS011;70081;44.524;0.194;2023-05-23T06:03:27;6.77;;;5.80;;
76699;SDS011;70081;44.524;0.194;2023-05-23T06:08:59;6.67;;;5.07;;
76699;SDS011;70081;44.524;0.194;2023-05-23T06:14:31;7.50;;;5.60;;
76699;SDS011;70081;44.524;0.194;2023-05-23T06:20:05;6.80;;;4.70;;
76699;SDS011;70081;44.524;0.194;2023-05-23T06:25:36;5.23;;;4.73;;
76699;SDS011;70081;44.524;0.194;2023-05-23T06:31:09;9.17;;;7.23;;
76699;SDS011;70081;44.524;0.194;2023-05-23T06:36:42;7.80;;;5.37;;
76699;SDS011;70081;44.524;0.194;2023-05-23T06:42:15;8.00;;;6.60;;
76699;SDS011;70081;44.524;0.194;2023-05-23T06:47:48;7.47;;;5.63;;
76699;SDS011;70081;44.524;0.194;2023-05-23T06:53:20;8.00;;;5.77;;
76699;SDS011;70081;44.524;0.194;2023-05-23T06:58:52;9.73;;;8.47;;
76699;SDS011;70081;44.524;0.194;2023-05-23T07:04:26;8.00;;;5.93;;
76699;SDS011;70081;44.524;0.194;2023-05-23T07:09:59;8.20;;;6.20;;
76699;SDS011;70081;44.524;0.194;2023-05-23T07:15:33;8.60;;;7.00;;
76699;SDS011;70081;44.524;0.194;2023-05-23T07:21:06;6.97;;;6.13;;
76699;SDS011;70081;44.524;0.194;2023-05-23T07:26:37;8.60;;;5.50;;
76699;SDS011;70081;44.524;0.194;2023-05-23T07:32:10;8.03;;;6.83;;
76699;SDS011;70081;44.524;0.194;2023-05-23T07:37:43;8.10;;;6.83;;
76699;SDS011;70081;44.524;0.194;2023-05-23T07:43:15;9.27;;;7.73;;
76699;SDS011;70081;44.524;0.194;2023-05-23T07:48:50;7.40;;;6.57;;
76699;SDS011;70081;44.524;0.194;2023-05-23T07:54:20;8.77;;;7.83;;
76699;SDS011;70081;44.524;0.194;2023-05-23T07:59:53;11.40;;;7.63;;
76699;SDS011;70081;44.524;0.194;2023-05-23T08:05:26;8.63;;;7.20;;
76699;SDS011;70081;44.524;0.194;2023-05-23T08:11:00;7.40;;;6.30;;
76699;SDS011;70081;44.524;0.194;2023-05-23T08:16:33;9.37;;;8.37;;
76699;SDS011;70081;44.524;0.194;2023-05-23T08:22:05;8.27;;;6.97;;
76699;SDS011;70081;44.524;0.194;2023-05-23T08:27:38;7.60;;;6.87;;
76699;SDS011;70081;44.524;0.194;2023-05-23T08:33:12;7.57;;;6.17;;
76699;SDS011;70081;44.524;0.194;2023-05-23T08:38:45;9.13;;;7.53;;
76699;SDS011;70081;44.524;0.194;2023-05-23T08:44:16;7.80;;;6.20;;
76699;SDS011;70081;44.524;0.194;2023-05-23T08:49:49;8.33;;;7.53;;
76699;SDS011;70081;44.524;0.194;2023-05-23T09:00:54;6.67;;;5.87;;
76699;SDS011;70081;44.524;0.194;2023-05-23T09:06:27;6.07;;;4.97;;
76699;SDS011;70081;44.524;0.194;2023-05-23T09:12:03;8.10;;;5.93;;
76699;SDS011;70081;44.524;0.194;2023-05-23T09:23:06;7.10;;;4.90;;
76699;SDS011;70081;44.524;0.194;2023-05-23T09:28:38;7.33;;;5.77;;
76699;SDS011;70081;44.524;0.194;2023-05-23T09:34:10;6.47;;;5.87;;
76699;SDS011;70081;44.524;0.194;2023-05-23T09:39:44;7.10;;;6.37;;
76699;SDS011;70081;44.524;0.194;2023-05-23T09:45:16;8.63;;;6.27;;
76699;SDS011;70081;44.524;0.194;2023-05-23T09:50:50;6.97;;;5.57;;
76699;SDS011;70081;44.524;0.194;2023-05-23T09:56:23;10.77;;;8.80;;
76699;SDS011;70081;44.524;0.194;2023-05-23T10:01:54;5.10;;;4.60;;
76699;SDS011;70081;44.524;0.194;2023-05-23T10:07:27;5.80;;;5.30;;
76699;SDS011;70081;44.524;0.194;2023-05-23T10:13:00;6.60;;;6.00;;
76699;SDS011;70081;44.524;0.194;2023-05-23T10:18:33;5.23;;;4.73;;
76699;SDS011;70081;44.524;0.194;2023-05-23T10:29:38;6.67;;;5.97;;
76699;SDS011;70081;44.524;0.194;2023-05-23T10:35:13;5.33;;;4.83;;
76699;SDS011;70081;44.524;0.194;2023-05-23T10:40:49;7.73;;;5.40;;
76699;SDS011;70081;44.524;0.194;2023-05-23T10:46:15;6.30;;;5.70;;
76699;SDS011;70081;44.524;0.194;2023-05-23T10:51:48;6.20;;;5.47;;
76699;SDS011;70081;44.524;0.194;2023-05-23T10:57:19;7.03;;;5.00;;
76699;SDS011;70081;44.524;0.194;2023-05-23T11:02:53;5.17;;;4.57;;
76699;SDS011;70081;44.524;0.194;2023-05-23T11:08:24;4.53;;;4.13;;
76699;SDS011;70081;44.524;0.194;2023-05-23T11:13:57;4.40;;;4.00;;
76699;SDS011;70081;44.524;0.194;2023-05-23T11:19:29;5.80;;;3.77;;
76699;SDS011;70081;44.524;0.194;2023-05-23T11:25:01;4.80;;;4.03;;
76699;SDS011;70081;44.524;0.194;2023-05-23T11:30:34;4.53;;;4.07;;
76699;SDS011;70081;44.524;0.194;2023-05-23T11:36:07;4.47;;;3.97;;
76699;SDS011;70081;44.524;0.194;2023-05-23T11:41:41;4.50;;;3.93;;
76699;SDS011;70081;44.524;0.194;2023-05-23T11:47:14;5.33;;;4.07;;
76699;SDS011;70081;44.524;0.194;2023-05-23T11:52:50;4.37;;;3.93;;
76699;SDS011;70081;44.524;0.194;2023-05-23T11:58:19;6.80;;;3.57;;
76699;SDS011;70081;44.524;0.194;2023-05-23T12:03:50;3.50;;;3.20;;
76699;SDS011;70081;44.524;0.194;2023-05-23T12:09:23;4.10;;;3.70;;
76699;SDS011;70081;44.524;0.194;2023-05-23T12:14:58;3.93;;;3.63;;
76699;SDS011;70081;44.524;0.194;2023-05-23T12:20:28;4.60;;;3.13;;
76699;SDS011;70081;44.524;0.194;2023-05-23T12:26:03;3.73;;;3.07;;
76699;SDS011;70081;44.524;0.194;2023-05-23T12:31:33;3.50;;;3.17;;
76699;SDS011;70081;44.524;0.194;2023-05-23T12:37:07;4.83;;;4.33;;
76699;SDS011;70081;44.524;0.194;2023-05-23T12:48:11;4.70;;;3.90;;
76699;SDS011;70081;44.524;0.194;2023-05-23T12:53:42;4.90;;;4.37;;
76699;SDS011;70081;44.524;0.194;2023-05-23T12:59:15;5.17;;;4.70;;
76699;SDS011;70081;44.524;0.194;2023-05-23T13:04:46;5.47;;;4.10;;
76699;SDS011;70081;44.524;0.194;2023-05-23T13:10:20;4.90;;;4.40;;
76699;SDS011;70081;44.524;0.194;2023-05-23T13:15:52;5.10;;;4.60;;
76699;SDS011;70081;44.524;0.194;2023-05-23T13:21:25;4.37;;;3.73;;
76699;SDS011;70081;44.524;0.194;2023-05-23T13:27:00;5.47;;;4.80;;
76699;SDS011;70081;44.524;0.194;2023-05-23T13:32:34;4.70;;;4.30;;
76699;SDS011;70081;44.524;0.194;2023-05-23T13:38:04;4.50;;;4.07;;
76699;SDS011;70081;44.524;0.194;2023-05-23T13:43:37;4.63;;;3.87;;
76699;SDS011;70081;44.524;0.194;2023-05-23T13:49:10;4.57;;;4.10;;
76699;SDS011;70081;44.524;0.194;2023-05-23T13:54:43;4.03;;;3.63;;
76699;SDS011;70081;44.524;0.194;2023-05-23T14:00:19;3.93;;;3.60;;
76699;SDS011;70081;44.524;0.194;2023-05-23T14:05:53;5.53;;;4.67;;
76699;SDS011;70081;44.524;0.194;2023-05-23T14:11:29;4.60;;;4.00;;
76699;SDS011;70081;44.524;0.194;2023-05-23T14:16:55;5.77;;;4.90;;
76699;SDS011;70081;44.524;0.194;2023-05-23T14:22:27;9.17;;;7.37;;
76699;SDS011;70081;44.524;0.194;2023-05-23T14:27:59;9.77;;;8.43;;
76699;SDS011;70081;44.524;0.194;2023-05-23T14:33:31;9.87;;;8.57;;
76699;SDS011;70081;44.524;0.194;2023-05-23T14:39:04;9.80;;;8.80;;
76699;SDS011;70081;44.524;0.194;2023-05-23T14:44:37;12.17;;;9.73;;
76699;SDS011;70081;44.524;0.194;2023-05-23T14:50:10;9.53;;;8.60;;
76699;SDS011;70081;44.524;0.194;2023-05-23T14:55:42;10.70;;;9.33;;
76699;SDS011;70081;44.524;0.194;2023-05-23T15:01:14;9.67;;;8.70;;
76699;SDS011;70081;44.524;0.194;2023-05-23T15:06:47;10.97;;;8.60;;
76699;SDS011;70081;44.524;0.194;2023-05-23T15:12:20;14.03;;;9.27;;
76699;SDS011;70081;44.524;0.194;2023-05-23T15:17:51;9.53;;;8.40;;
76699;SDS011;70081;44.524;0.194;2023-05-23T15:23:24;11.77;;;9.77;;
76699;SDS011;70081;44.524;0.194;2023-05-23T15:28:56;11.20;;;9.67;;
76699;SDS011;70081;44.524;0.194;2023-05-23T15:34:28;13.47;;;9.93;;
76699;SDS011;70081;44.524;0.194;2023-05-23T15:45:32;11.77;;;9.27;;
76699;SDS011;70081;44.524;0.194;2023-05-23T15:51:05;11.77;;;10.20;;
76699;SDS011;70081;44.524;0.194;2023-05-23T15:56:37;11.13;;;9.90;;
76699;SDS011;70081;44.524;0.194;2023-05-23T16:02:12;10.13;;;9.13;;
76699;SDS011;70081;44.524;0.194;2023-05-23T16:07:42;11.10;;;9.63;;
76699;SDS011;70081;44.524;0.194;2023-05-23T16:13:14;12.00;;;10.40;;
76699;SDS011;70081;44.524;0.194;2023-05-23T16:18:46;12.13;;;10.93;;
76699;SDS011;70081;44.524;0.194;2023-05-23T16:24:22;11.93;;;10.43;;
76699;SDS011;70081;44.524;0.194;2023-05-23T16:29:53;12.47;;;10.33;;
76699;SDS011;70081;44.524;0.194;2023-05-23T16:35:25;11.03;;;9.30;;
76699;SDS011;70081;44.524;0.194;2023-05-23T16:40:57;16.13;;;10.60;;
76699;SDS011;70081;44.524;0.194;2023-05-23T16:46:30;14.50;;;10.10;;
76699;SDS011;70081;44.524;0.194;2023-05-23T16:52:03;11.20;;;10.03;;
76699;SDS011;70081;44.524;0.194;2023-05-23T16:57:35;11.90;;;9.47;;
76699;SDS011;70081;44.524;0.194;2023-05-23T17:03:09;13.43;;;9.57;;
76699;SDS011;70081;44.524;0.194;2023-05-23T17:08:41;11.97;;;9.43;;
76699;SDS011;70081;44.524;0.194;2023-05-23T17:14:14;11.20;;;9.57;;
76699;SDS011;70081;44.524;0.194;2023-05-23T17:19:47;11.90;;;9.87;;
76699;SDS011;70081;44.524;0.194;2023-05-23T17:25:20;12.07;;;10.60;;
76699;SDS011;70081;44.524;0.194;2023-05-23T17:30:53;12.27;;;10.63;;
76699;SDS011;70081;44.524;0.194;2023-05-23T17:36:25;12.20;;;10.47;;
76699;SDS011;70081;44.524;0.194;2023-05-23T17:41:57;13.87;;;10.27;;
76699;SDS011;70081;44.524;0.194;2023-05-23T17:47:30;12.67;;;10.60;;
76699;SDS011;70081;44.524;0.194;2023-05-23T17:53:03;11.90;;;9.97;;
76699;SDS011;70081;44.524;0.194;2023-05-23T17:58:37;13.23;;;9.80;;
76699;SDS011;70081;44.524;0.194;2023-05-23T18:04:08;12.03;;;10.80;;
76699;SDS011;70081;44.524;0.194;2023-05-23T18:09:41;10.47;;;8.80;;
76699;SDS011;70081;44.524;0.194;2023-05-23T18:15:13;11.67;;;9.47;;
76699;SDS011;70081;44.524;0.194;2023-05-23T18:20:45;12.20;;;10.13;;
76699;SDS011;70081;44.524;0.194;2023-05-23T18:26:18;12.00;;;9.70;;
76699;SDS011;70081;44.524;0.194;2023-05-23T18:31:50;13.17;;;11.73;;
76699;SDS011;70081;44.524;0.194;2023-05-23T18:37:23;15.93;;;10.43;;
76699;SDS011;70081;44.524;0.194;2023-05-23T18:42:55;14.07;;;10.67;;
76699;SDS011;70081;44.524;0.194;2023-05-23T18:48:28;13.47;;;11.23;;
76699;SDS011;70081;44.524;0.194;2023-05-23T18:54:01;13.20;;;11.00;;
76699;SDS011;70081;44.524;0.194;2023-05-23T18:59:33;12.50;;;11.13;;
76699;SDS011;70081;44.524;0.194;2023-05-23T19:05:07;11.53;;;10.33;;
76699;SDS011;70081;44.524;0.194;2023-05-23T19:10:39;16.63;;;13.07;;
76699;SDS011;70081;44.524;0.194;2023-05-23T19:16:13;14.53;;;10.67;;
76699;SDS011;70081;44.524;0.194;2023-05-23T19:21:45;13.77;;;11.10;;
76699;SDS011;70081;44.524;0.194;2023-05-23T19:27:18;13.00;;;11.37;;
76699;SDS011;70081;44.524;0.194;2023-05-23T19:32:50;16.07;;;12.20;;
76699;SDS011;70081;44.524;0.194;2023-05-23T19:38:22;15.00;;;13.03;;
76699;SDS011;70081;44.524;0.194;2023-05-23T19:43:54;13.97;;;12.43;;
76699;SDS011;70081;44.524;0.194;2023-05-23T19:49:26;17.43;;;12.03;;
76699;SDS011;70081;44.524;0.194;2023-05-23T19:54:59;16.67;;;11.67;;
76699;SDS011;70081;44.524;0.194;2023-05-23T20:00:31;13.77;;;10.13;;
76699;SDS011;70081;44.524;0.194;2023-05-23T20:06:03;13.00;;;11.33;;
76699;SDS011;70081;44.524;0.194;2023-05-23T20:11:35;15.27;;;11.70;;
76699;SDS011;70081;44.524;0.194;2023-05-23T20:17:07;14.40;;;12.40;;
76699;SDS011;70081;44.524;0.194;2023-05-23T20:22:40;16.77;;;12.43;;
76699;SDS011;70081;44.524;0.194;2023-05-23T20:28:13;15.83;;;13.20;;
76699;SDS011;70081;44.524;0.194;2023-05-23T20:33:46;19.80;;;13.60;;
76699;SDS011;70081;44.524;0.194;2023-05-23T20:39:18;18.33;;;12.87;;
76699;SDS011;70081;44.524;0.194;2023-05-23T20:44:50;17.00;;;13.17;;
76699;SDS011;70081;44.524;0.194;2023-05-23T20:50:22;16.33;;;12.87;;
76699;SDS011;70081;44.524;0.194;2023-05-23T20:55:54;15.90;;;12.13;;
76699;SDS011;70081;44.524;0.194;2023-05-23T21:01:27;16.33;;;12.47;;
76699;SDS011;70081;44.524;0.194;2023-05-23T21:07:00;15.87;;;12.87;;
76699;SDS011;70081;44.524;0.194;2023-05-23T21:12:32;18.83;;;14.03;;
76699;SDS011;70081;44.524;0.194;2023-05-23T21:18:04;19.87;;;13.20;;
76699;SDS011;70081;44.524;0.194;2023-05-23T21:23:36;17.63;;;13.37;;
76699;SDS011;70081;44.524;0.194;2023-05-23T21:29:09;18.53;;;14.37;;
76699;SDS011;70081;44.524;0.194;2023-05-23T21:34:43;18.37;;;12.53;;
76699;SDS011;70081;44.524;0.194;2023-05-23T21:40:16;18.73;;;13.00;;
76699;SDS011;70081;44.524;0.194;2023-05-23T21:45:49;17.63;;;13.73;;
76699;SDS011;70081;44.524;0.194;2023-05-23T21:51:23;18.03;;;14.73;;
76699;SDS011;70081;44.524;0.194;2023-05-23T22:02:29;20.47;;;15.50;;
76699;SDS011;70081;44.524;0.194;2023-05-23T22:08:02;18.87;;;14.17;;
76699;SDS011;70081;44.524;0.194;2023-05-23T22:13:33;18.03;;;13.23;;
76699;SDS011;70081;44.524;0.194;2023-05-23T22:19:09;16.30;;;11.20;;
76699;SDS011;70081;44.524;0.194;2023-05-23T22:24:40;14.43;;;11.00;;
76699;SDS011;70081;44.524;0.194;2023-05-23T22:30:12;14.83;;;12.00;;
76699;SDS011;70081;44.524;0.194;2023-05-23T22:35:44;18.47;;;14.47;;
76699;SDS011;70081;44.524;0.194;2023-05-23T22:41:17;16.47;;;12.80;;
76699;SDS011;70081;44.524;0.194;2023-05-23T22:46:51;21.23;;;13.20;;
76699;SDS011;70081;44.524;0.194;2023-05-23T22:52:24;17.67;;;11.47;;
76699;SDS011;70081;44.524;0.194;2023-05-23T22:57:57;17.67;;;13.23;;
76699;SDS011;70081;44.524;0.194;2023-05-23T23:03:30;18.47;;;11.80;;
76699;SDS011;70081;44.524;0.194;2023-05-23T23:09:04;16.87;;;13.17;;
76699;SDS011;70081;44.524;0.194;2023-05-23T23:14:36;17.77;;;11.80;;
76699;SDS011;70081;44.524;0.194;2023-05-23T23:20:10;18.87;;;14.07;;
76699;SDS011;70081;44.524;0.194;2023-05-23T23:25:44;18.23;;;13.47;;
76699;SDS011;70081;44.524;0.194;2023-05-23T23:31:16;17.97;;;12.97;;
76699;SDS011;70081;44.524;0.194;2023-05-23T23:36:48;17.33;;;12.30;;
76699;SDS011;70081;44.524;0.194;2023-05-23T23:42:20;16.33;;;11.80;;
76699;SDS011;70081;44.524;0.194;2023-05-23T23:47:53;18.90;;;12.50;;
76699;SDS011;70081;44.524;0.194;2023-05-23T23:53:27;14.20;;;10.47;;
76699;SDS011;70081;44.524;0.194;2023-05-23T23:58:59;13.07;;;9.47;;
